createdAt,value
2019-02-21T00:00:57.619Z,93.74
2019-02-21T00:03:30.267Z,93.75
2019-02-21T00:06:02.874Z,93.72
2019-02-21T00:08:35.529Z,93.65
2019-02-21T00:11:08.179Z,93.72
2019-02-21T00:13:40.879Z,93.66
2019-02-21T00:16:13.540Z,93.59
2019-02-21T00:18:46.087Z,93.57
2019-02-21T00:21:18.685Z,93.60
2019-02-21T00:23:51.338Z,93.68
2019-02-21T00:26:23.932Z,93.72
2019-02-21T00:28:58.868Z,93.75
2019-02-21T00:31:31.587Z,93.85
2019-02-21T00:34:04.191Z,93.83
2019-02-21T00:36:37.021Z,93.78
2019-02-21T00:39:09.652Z,93.63
2019-02-21T00:41:42.372Z,93.63
2019-02-21T00:44:14.995Z,93.81
2019-02-21T00:46:47.615Z,93.93
2019-02-21T00:49:20.238Z,93.81
2019-02-21T00:51:52.868Z,93.72
2019-02-21T00:54:25.585Z,93.71
2019-02-21T00:56:58.124Z,93.77
2019-02-21T00:59:30.794Z,93.72
2019-02-21T01:02:03.530Z,93.72
2019-02-21T01:04:36.115Z,93.67
2019-02-21T01:07:08.794Z,93.68
2019-02-21T01:09:41.646Z,93.72
2019-02-21T01:12:14.295Z,93.74
2019-02-21T01:14:46.871Z,93.79
2019-02-21T01:17:19.635Z,93.85
2019-02-21T01:19:52.362Z,93.84
2019-02-21T01:22:25.013Z,93.84
2019-02-21T01:24:57.719Z,93.88
2019-02-21T01:27:30.348Z,93.90
2019-02-21T01:30:03.050Z,93.89
2019-02-21T01:32:35.787Z,93.95
2019-02-21T01:35:08.644Z,94.00
2019-02-21T01:37:41.213Z,94.05
2019-02-21T01:40:13.808Z,94.06
2019-02-21T01:42:46.463Z,94.12
2019-02-21T01:45:19.251Z,94.20
2019-02-21T01:47:51.893Z,94.12
2019-02-21T01:50:24.526Z,93.93
2019-02-21T01:52:57.289Z,93.84
2019-02-21T01:55:29.899Z,93.81
2019-02-21T01:58:02.712Z,93.87
2019-02-21T02:00:35.378Z,93.92
2019-02-21T02:03:08.163Z,94.09
2019-02-21T02:05:40.731Z,94.11
2019-02-21T02:08:13.357Z,94.06
2019-02-21T02:10:46.032Z,94.00
2019-02-21T02:13:24.618Z,93.93
2019-02-21T02:15:53.199Z,93.99
2019-02-21T02:18:25.800Z,94.04
2019-02-21T02:20:58.477Z,94.09
2019-02-21T02:23:32.540Z,94.15
2019-02-21T02:26:05.159Z,94.20
2019-02-21T02:28:37.776Z,94.22
2019-02-21T02:31:21.884Z,94.24
2019-02-21T02:33:44.721Z,94.26
2019-02-21T02:36:17.332Z,94.29
2019-02-21T02:38:49.904Z,94.33
2019-02-21T02:41:22.717Z,94.24
2019-02-21T02:43:55.367Z,94.21
2019-02-21T02:46:27.935Z,94.25
2019-02-21T02:49:01.562Z,94.28
2019-02-21T02:51:34.247Z,94.26
2019-02-21T02:54:07.037Z,94.23
2019-02-21T02:56:39.677Z,94.20
2019-02-21T02:59:12.352Z,94.23
2019-02-21T03:01:44.929Z,94.27
2019-02-21T03:04:17.618Z,94.29
2019-02-21T03:06:50.276Z,94.31
2019-02-21T03:09:23.904Z,94.32
2019-02-21T03:11:56.582Z,94.25
2019-02-21T03:14:30.217Z,94.26
2019-02-21T03:17:04.626Z,94.25
2019-02-21T03:19:37.251Z,94.26
2019-02-21T03:22:10.022Z,94.25
2019-02-21T03:24:42.258Z,94.23
2019-02-21T03:27:14.886Z,94.27
2019-02-21T03:29:47.425Z,94.29
2019-02-21T03:32:20.270Z,94.33
2019-02-21T03:34:53.002Z,94.31
2019-02-21T03:37:25.622Z,94.28
2019-02-21T03:39:58.296Z,94.29
2019-02-21T03:42:30.924Z,94.36
2019-02-21T03:45:03.524Z,94.38
2019-02-21T03:47:36.198Z,94.39
2019-02-21T03:50:09.325Z,94.45
2019-02-21T03:52:41.947Z,94.44
2019-02-21T03:55:14.637Z,94.42
2019-02-21T03:57:47.238Z,94.40
2019-02-21T04:00:19.910Z,94.41
2019-02-21T04:02:52.569Z,94.39
2019-02-21T04:05:25.365Z,94.36
2019-02-21T04:07:57.970Z,94.27
2019-02-21T04:10:30.646Z,94.25
2019-02-21T04:13:03.298Z,94.25
2019-02-21T04:15:35.975Z,94.23
2019-02-21T04:18:08.705Z,94.25
2019-02-21T04:20:41.335Z,94.33
2019-02-21T04:23:13.910Z,94.39
2019-02-21T04:25:46.882Z,94.44
2019-02-21T04:28:19.430Z,94.46
2019-02-21T04:30:52.139Z,94.45
2019-02-21T04:33:24.720Z,94.53
2019-02-21T04:35:57.397Z,94.57
2019-02-21T04:38:30.009Z,94.57
2019-02-21T04:41:02.711Z,94.61
2019-02-21T04:43:35.318Z,94.64
2019-02-21T04:52:23.792Z,94.65
2019-02-21T04:54:58.857Z,94.66
2019-02-21T04:57:31.520Z,94.63
2019-02-21T05:00:04.521Z,94.61
2019-02-21T05:02:37.326Z,94.56
2019-02-21T05:05:10.176Z,94.56
2019-02-21T05:07:42.856Z,94.56
2019-02-21T05:10:15.769Z,94.56
2019-02-21T05:12:48.612Z,94.56
2019-02-21T05:15:21.389Z,94.53
2019-02-21T05:17:54.052Z,94.55
2019-02-21T05:20:27.119Z,94.63
2019-02-21T05:22:59.818Z,94.67
2019-02-21T05:25:32.526Z,94.65
2019-02-21T05:28:27.606Z,94.58
2019-02-21T05:31:05.636Z,94.52
2019-02-21T05:33:55.795Z,94.54
2019-02-21T05:36:47.403Z,94.53
2019-02-21T05:39:41.929Z,94.56
2019-02-21T05:42:37.011Z,94.53
2019-02-21T05:45:21.310Z,94.56
2019-02-21T05:48:15.962Z,94.53
2019-02-21T05:51:25.617Z,94.60
2019-02-21T05:54:16.186Z,94.61
2019-02-21T05:57:00.002Z,94.54
2019-02-21T05:59:57.674Z,94.47
2019-02-21T06:02:55.329Z,94.53
2019-02-21T06:05:55.913Z,94.60
2019-02-21T06:08:40.812Z,94.60
2019-02-21T06:11:19.798Z,94.58
2019-02-21T06:14:04.703Z,94.60
2019-02-21T06:16:54.822Z,94.55
2019-02-21T06:19:45.076Z,94.54
2019-02-21T06:22:36.696Z,94.53
2019-02-21T06:25:37.051Z,94.54
2019-02-21T06:28:24.685Z,94.56
2019-02-21T06:31:01.372Z,94.61
2019-02-21T06:33:34.177Z,94.64
2019-02-21T06:36:06.918Z,94.60
2019-02-21T06:38:39.739Z,94.58
2019-02-21T06:41:13.041Z,94.59
2019-02-21T06:43:45.862Z,94.59
2019-02-21T06:46:18.548Z,94.63
2019-02-21T06:48:51.673Z,94.63
2019-02-21T06:51:24.605Z,94.66
2019-02-21T06:53:57.400Z,94.66
2019-02-21T06:56:30.259Z,94.63
2019-02-21T06:59:02.984Z,94.62
2019-02-21T07:01:35.877Z,94.64
2019-02-21T07:04:08.744Z,94.65
2019-02-21T07:06:41.522Z,94.63
2019-02-21T07:09:14.218Z,94.66
2019-02-21T07:11:46.971Z,94.68
2019-02-21T07:14:19.752Z,94.66
2019-02-21T07:16:52.414Z,94.66
2019-02-21T07:19:25.292Z,94.64
2019-02-21T07:21:58.184Z,94.62
2019-02-21T07:24:31.119Z,94.58
2019-02-21T07:27:03.786Z,94.59
2019-02-21T07:29:38.720Z,94.57
2019-02-21T07:32:10.840Z,94.50
2019-02-21T07:34:43.592Z,94.53
2019-02-21T07:37:18.924Z,94.51
2019-02-21T07:39:50.931Z,94.56
2019-02-21T07:42:23.970Z,94.56
2019-02-21T07:44:59.533Z,94.54
2019-02-21T07:47:31.150Z,94.48
2019-02-21T07:50:03.896Z,94.46
2019-02-21T07:52:36.654Z,94.44
2019-02-21T07:55:10.538Z,94.45
2019-02-21T07:57:43.605Z,94.48
2019-02-21T08:00:16.250Z,94.49
2019-02-21T08:02:49.153Z,94.54
2019-02-21T08:05:24.846Z,94.62
2019-02-21T08:07:57.625Z,94.65
2019-02-21T08:10:33.744Z,94.44
2019-02-21T08:13:04.790Z,94.53
2019-02-21T08:15:37.474Z,93.44
2019-02-21T08:18:10.376Z,92.27
2019-02-21T08:20:43.163Z,87.37
2019-02-21T08:23:15.896Z,82.03
2019-02-21T08:25:48.609Z,79.35
2019-02-21T08:28:23.564Z,75.54
2019-02-21T08:30:58.134Z,70.75
2019-02-21T08:33:34.103Z,69.93
2019-02-21T08:36:06.823Z,67.79
2019-02-21T08:38:39.560Z,63.10
2019-02-21T08:41:14.441Z,64.05
2019-02-21T08:43:47.558Z,62.58
2019-02-21T08:46:20.263Z,57.60
2019-02-21T08:48:53.195Z,54.75
2019-02-21T08:51:27.021Z,56.26
2019-02-21T08:53:59.809Z,58.32
2019-02-21T08:56:32.608Z,59.46
2019-02-21T08:59:05.362Z,56.98
2019-02-21T09:01:38.085Z,58.54
2019-02-21T09:04:26.468Z,56.98
2019-02-21T09:06:45.293Z,57.44
2019-02-21T09:09:18.162Z,54.15
2019-02-21T09:11:50.933Z,55.90
2019-02-21T09:14:23.812Z,51.86
2019-02-21T09:16:56.580Z,49.91
2019-02-21T09:19:30.648Z,50.73
2019-02-21T09:22:03.655Z,52.98
2019-02-21T09:35:30.787Z,49.45
2019-02-21T09:38:03.794Z,47.71
2019-02-21T09:40:36.632Z,50.69
2019-02-21T09:43:09.591Z,49.65
2019-02-21T09:45:42.401Z,46.35
2019-02-21T09:48:15.301Z,49.33
2019-02-21T09:50:48.311Z,47.26
2019-02-21T09:53:21.069Z,45.73
2019-02-21T09:55:53.911Z,48.58
2019-02-21T09:58:26.715Z,48.95
2019-02-21T10:00:59.693Z,45.07
2019-02-21T10:03:32.611Z,46.63
2019-02-21T10:06:08.540Z,45.02
2019-02-21T10:08:41.401Z,43.78
2019-02-21T10:11:14.170Z,44.40
2019-02-21T10:13:47.013Z,44.76
2019-02-21T10:16:19.800Z,44.49
2019-02-21T10:18:52.607Z,43.48
2019-02-21T10:21:25.375Z,44.07
2019-02-21T10:23:58.186Z,42.40
2019-02-21T10:26:31.142Z,43.32
2019-02-21T10:29:03.891Z,41.62
2019-02-21T10:31:36.724Z,44.45
2019-02-21T10:34:11.825Z,45.26
2019-02-21T10:36:44.672Z,43.17
2019-02-21T10:39:17.526Z,41.74
2019-02-21T10:41:50.941Z,42.97
2019-02-21T10:44:23.659Z,41.36
2019-02-21T10:46:56.406Z,41.95
2019-02-21T10:49:29.180Z,39.70
2019-02-21T10:52:02.091Z,39.36
2019-02-21T10:54:34.866Z,40.82
2019-02-21T10:57:07.647Z,38.17
2019-02-21T10:59:46.743Z,38.89
2019-02-21T11:02:15.075Z,38.84
2019-02-21T11:04:54.738Z,38.91
2019-02-21T11:07:23.066Z,35.75
2019-02-21T11:09:55.901Z,36.47
2019-02-21T11:12:28.867Z,38.19
2019-02-21T11:15:01.713Z,36.42
2019-02-21T11:17:34.470Z,37.81
2019-02-21T11:20:09.872Z,37.30
2019-02-21T11:22:42.732Z,36.12
2019-02-21T11:25:15.697Z,38.80
2019-02-21T11:27:48.504Z,38.63
2019-02-21T11:30:21.379Z,38.83
2019-02-21T11:32:54.265Z,37.54
2019-02-21T11:35:27.080Z,37.56
2019-02-21T11:37:59.834Z,38.23
2019-02-21T11:40:32.597Z,36.20
2019-02-21T11:43:05.408Z,37.04
2019-02-21T11:45:38.172Z,36.19
2019-02-21T11:48:11.498Z,36.09
2019-02-21T11:50:43.755Z,34.94
2019-02-21T11:53:16.582Z,34.84
2019-02-21T11:55:49.398Z,34.31
2019-02-21T11:58:22.179Z,34.53
2019-02-21T12:00:58.137Z,35.24
2019-02-21T12:03:31.022Z,34.71
2019-02-21T12:06:03.827Z,35.13
2019-02-21T12:08:36.589Z,30.56
2019-02-21T12:11:09.798Z,29.84
2019-02-21T12:13:42.718Z,28.24
2019-02-21T12:16:15.561Z,28.14
2019-02-21T12:18:48.455Z,28.14
2019-02-21T12:21:21.228Z,29.49
2019-02-21T12:23:53.977Z,29.10
2019-02-21T12:26:26.748Z,27.12
2019-02-21T12:28:59.547Z,29.18
2019-02-21T12:31:32.280Z,27.14
2019-02-21T12:34:05.348Z,27.98
2019-02-21T12:36:38.109Z,27.31
2019-02-21T12:39:11.033Z,30.96
2019-02-21T12:41:43.849Z,28.27
2019-02-21T12:44:16.703Z,28.25
2019-02-21T12:46:49.541Z,26.45
2019-02-21T12:49:22.378Z,27.42
2019-02-21T12:51:57.376Z,28.23
2019-02-21T12:54:29.578Z,28.83
2019-02-21T12:57:02.528Z,27.70
2019-02-21T12:59:35.239Z,26.34
2019-02-21T13:02:08.005Z,28.32
2019-02-21T13:04:40.709Z,25.95
2019-02-21T13:07:13.589Z,24.46
2019-02-21T13:09:46.321Z,25.00
2019-02-21T13:12:21.942Z,25.87
2019-02-21T13:14:54.729Z,24.28
2019-02-21T13:17:27.460Z,26.42
2019-02-21T13:20:00.301Z,28.40
2019-02-21T13:22:33.232Z,29.84
2019-02-21T13:25:06.503Z,28.98
2019-02-21T13:27:39.279Z,29.88
2019-02-21T13:30:15.138Z,30.12
2019-02-21T13:32:47.928Z,27.25
2019-02-21T13:35:21.140Z,28.69
2019-02-21T13:37:53.840Z,29.46
2019-02-21T13:40:26.594Z,28.16
2019-02-21T13:42:59.434Z,28.63
2019-02-21T13:45:32.227Z,28.14
2019-02-21T13:48:05.108Z,28.35
2019-02-21T13:50:37.848Z,28.29
2019-02-21T13:53:10.610Z,28.02
2019-02-21T13:55:43.439Z,29.25
2019-02-21T13:58:16.202Z,30.13
2019-02-21T14:00:48.910Z,29.92
2019-02-21T14:03:21.795Z,27.99
2019-02-21T14:06:03.179Z,28.34
2019-02-21T14:08:29.130Z,28.73
2019-02-21T14:11:01.942Z,29.70
2019-02-21T14:13:34.748Z,28.89
2019-02-21T14:16:07.931Z,29.18
2019-02-21T14:18:40.768Z,29.33
2019-02-21T14:21:13.496Z,30.25
2019-02-21T14:23:46.671Z,30.96
2019-02-21T14:26:19.436Z,31.32
2019-02-21T14:28:53.551Z,32.62
2019-02-21T14:31:26.351Z,32.05
2019-02-21T14:33:59.192Z,32.93
2019-02-21T14:36:31.944Z,32.20
2019-02-21T14:39:06.151Z,32.71
2019-02-21T14:41:39.037Z,32.70
2019-02-21T14:44:11.836Z,32.86
2019-02-21T14:46:44.767Z,33.57
2019-02-21T14:49:17.520Z,36.02
2019-02-21T14:51:50.315Z,33.63
2019-02-21T14:54:24.072Z,32.68
2019-02-21T14:56:56.828Z,35.16
2019-02-21T14:59:32.586Z,33.51
2019-02-21T15:02:06.239Z,34.30
2019-02-21T15:04:39.174Z,35.95
2019-02-21T15:07:12.183Z,34.99
2019-02-21T15:09:45.665Z,34.25
2019-02-21T15:12:18.746Z,34.53
2019-02-21T15:14:51.569Z,35.69
2019-02-21T15:17:24.349Z,35.76
2019-02-21T15:19:57.232Z,35.16
2019-02-21T15:22:30.053Z,35.57
2019-02-21T15:25:02.788Z,35.76
2019-02-21T15:27:35.656Z,37.20
2019-02-21T15:30:11.149Z,35.39
2019-02-21T15:32:44.971Z,36.13
2019-02-21T15:35:19.412Z,35.32
2019-02-21T15:37:52.525Z,35.83
2019-02-21T15:40:25.249Z,33.56
2019-02-21T15:42:57.947Z,32.96
2019-02-21T15:45:30.731Z,35.36
2019-02-21T15:48:03.654Z,35.32
2019-02-21T15:50:36.440Z,36.04
2019-02-21T15:53:09.299Z,38.50
2019-02-21T15:55:42.075Z,36.81
2019-02-21T15:58:14.973Z,39.09
2019-02-21T16:00:47.811Z,38.54
2019-02-21T16:03:20.558Z,39.03
2019-02-21T16:05:53.430Z,37.28
2019-02-21T16:08:26.241Z,37.16
2019-02-21T16:10:59.108Z,36.71
2019-02-21T16:13:32.034Z,39.73
2019-02-21T16:16:04.925Z,39.13
2019-02-21T16:18:37.661Z,41.37
2019-02-21T16:21:10.485Z,42.62
2019-02-21T16:23:43.256Z,41.45
2019-02-21T16:26:16.081Z,43.59
2019-02-21T16:28:48.863Z,43.28
2019-02-21T16:31:22.095Z,45.01
2019-02-21T16:33:54.888Z,46.78
2019-02-21T16:36:27.670Z,47.30
2019-02-21T16:39:00.465Z,48.77
2019-02-21T16:41:36.262Z,50.45
2019-02-21T16:44:07.836Z,51.51
2019-02-21T16:46:40.615Z,51.04
2019-02-21T16:49:13.439Z,51.05
2019-02-21T16:51:46.301Z,51.72
2019-02-21T16:54:19.052Z,51.95
2019-02-21T16:56:51.779Z,51.67
2019-02-21T16:59:24.670Z,52.52
2019-02-21T17:01:57.341Z,53.43
2019-02-21T17:04:30.030Z,54.17
2019-02-21T17:07:13.104Z,55.27
2019-02-21T17:09:37.413Z,55.36
2019-02-21T17:12:10.142Z,54.57
2019-02-21T17:14:42.821Z,54.77
2019-02-21T17:17:15.516Z,56.11
2019-02-21T17:19:48.219Z,56.99
2019-02-21T17:22:20.910Z,57.05
2019-02-21T17:24:53.537Z,58.13
2019-02-21T17:27:26.367Z,59.14
2019-02-21T17:29:59.325Z,60.14
2019-02-21T17:32:32.012Z,60.53
2019-02-21T17:35:04.943Z,61.35
2019-02-21T17:37:37.596Z,60.94
2019-02-21T17:40:13.494Z,61.18
2019-02-21T17:42:46.299Z,61.26
2019-02-21T17:45:19.122Z,62.06
2019-02-21T17:47:51.889Z,63.00
2019-02-21T17:50:24.562Z,63.60
2019-02-21T17:52:57.294Z,63.84
2019-02-21T17:55:29.957Z,63.28
2019-02-21T17:58:02.640Z,62.62
2019-02-21T18:00:37.134Z,63.40
2019-02-21T18:03:09.856Z,64.09
2019-02-21T18:05:42.518Z,63.89
2019-02-21T18:08:15.212Z,63.89
2019-02-21T18:10:47.892Z,63.82
2019-02-21T18:13:20.671Z,64.82
2019-02-21T18:15:53.453Z,65.96
2019-02-21T18:18:26.316Z,65.26
2019-02-21T18:20:59.008Z,65.98
2019-02-21T18:23:31.823Z,66.30
2019-02-21T18:26:18.525Z,66.42
2019-02-21T18:28:51.305Z,66.89
2019-02-21T18:31:24.134Z,66.87
2019-02-21T18:33:56.873Z,66.26
2019-02-21T18:36:29.548Z,67.40
2019-02-21T18:39:02.253Z,68.00
2019-02-21T18:41:35.035Z,68.62
2019-02-21T18:44:07.749Z,68.23
2019-02-21T18:46:40.505Z,68.37
2019-02-21T18:49:13.355Z,68.17
2019-02-21T18:51:46.174Z,67.81
2019-02-21T18:54:18.878Z,67.92
2019-02-21T18:56:51.820Z,68.16
2019-02-21T18:59:31.783Z,66.88
2019-02-21T19:01:59.029Z,66.35
2019-02-21T19:04:31.769Z,66.41
2019-02-21T19:07:04.470Z,67.49
2019-02-21T19:09:37.287Z,67.42
2019-02-21T19:12:10.107Z,67.94
2019-02-21T19:16:05.973Z,68.97
2019-02-21T19:18:38.848Z,68.37
2019-02-21T19:21:11.730Z,68.25
2019-02-21T19:23:44.418Z,67.56
2019-02-21T19:26:17.056Z,66.59
2019-02-21T19:28:49.924Z,67.15
2019-02-21T19:31:23.233Z,67.47
2019-02-21T19:33:55.956Z,68.03
2019-02-21T19:36:28.776Z,69.62
2019-02-21T19:39:01.454Z,69.69
2019-02-21T19:41:34.389Z,69.60
2019-02-21T19:44:09.129Z,70.50
2019-02-21T19:46:41.625Z,71.34
2019-02-21T19:49:14.607Z,72.14
2019-02-21T19:51:47.281Z,72.28
2019-02-21T19:54:20.018Z,72.61
2019-02-21T19:56:52.861Z,72.38
2019-02-21T19:59:25.772Z,71.97
2019-02-21T20:01:58.464Z,71.78
2019-02-21T20:04:31.297Z,71.87
2019-02-21T20:07:04.183Z,71.67
2019-02-21T20:09:37.086Z,71.89
2019-02-21T20:12:09.995Z,72.19
2019-02-21T20:14:42.814Z,72.46
2019-02-21T20:17:15.678Z,71.82
2019-02-21T20:19:48.412Z,71.63
2019-02-21T20:22:21.242Z,71.93
2019-02-21T20:24:54.015Z,71.90
2019-02-21T20:27:26.899Z,71.33
2019-02-21T20:29:59.731Z,71.74
2019-02-21T20:32:32.457Z,72.05
2019-02-21T20:35:05.364Z,73.33
2019-02-21T20:37:38.126Z,73.56
2019-02-21T20:40:11.418Z,73.32
2019-02-21T20:42:44.080Z,72.84
2019-02-21T20:45:16.872Z,72.44
2019-02-21T20:47:49.680Z,72.02
2019-02-21T20:50:22.403Z,72.33
2019-02-21T20:52:55.349Z,72.31
2019-02-21T20:55:28.142Z,72.79
2019-02-21T20:58:00.830Z,72.69
2019-02-21T21:00:33.506Z,72.59
2019-02-21T21:03:06.260Z,72.81
2019-02-21T21:05:39.136Z,73.17
2019-02-21T21:08:12.244Z,73.85
2019-02-21T21:10:45.050Z,75.11
2019-02-21T21:13:17.797Z,75.94
2019-02-21T21:15:50.511Z,76.16
2019-02-21T21:18:23.266Z,76.38
2019-02-21T21:20:56.049Z,74.86
2019-02-21T21:23:28.822Z,74.06
2019-02-21T21:26:01.573Z,74.09
2019-02-21T21:28:34.335Z,73.54
2019-02-21T21:31:07.133Z,73.38
2019-02-21T21:33:40.000Z,74.07
2019-02-21T21:36:12.814Z,74.40
2019-02-21T21:38:53.600Z,75.29
2019-02-21T21:41:21.101Z,74.68
2019-02-21T21:43:53.803Z,75.20
2019-02-21T21:46:26.524Z,75.09
2019-02-21T21:48:59.305Z,75.42
2019-02-21T21:51:34.004Z,75.80
2019-02-21T21:54:06.769Z,75.81
2019-02-21T21:56:39.514Z,75.95
2019-02-21T21:59:12.274Z,76.20
2019-02-21T22:01:47.545Z,76.59
2019-02-21T22:04:21.194Z,76.62
2019-02-21T22:06:53.848Z,75.36
2019-02-21T22:09:26.098Z,74.54
2019-02-21T22:11:58.774Z,74.85
2019-02-21T22:14:31.579Z,75.50
2019-02-21T22:17:04.362Z,75.86
2019-02-21T22:19:37.161Z,76.26
2019-02-21T22:22:09.900Z,77.16
2019-02-21T22:24:42.755Z,77.16
2019-02-21T22:27:15.365Z,77.01
2019-02-21T22:29:48.191Z,75.62
2019-02-21T22:32:20.923Z,75.53
2019-02-21T22:34:53.664Z,76.02
2019-02-21T22:37:26.496Z,76.24
2019-02-21T22:39:59.253Z,77.08
2019-02-21T22:42:32.384Z,77.28
2019-02-21T22:45:05.658Z,76.94
2019-02-21T22:47:39.741Z,76.69
2019-02-21T22:50:14.992Z,76.93
2019-02-21T22:52:47.845Z,76.80
2019-02-21T22:55:20.594Z,76.99
2019-02-21T22:57:53.412Z,77.31
2019-02-21T23:01:29.877Z,77.57
2019-02-21T23:04:57.163Z,77.96
2019-02-21T23:07:48.701Z,77.69
2019-02-21T23:10:21.636Z,78.14
2019-02-21T23:12:54.449Z,77.99
2019-02-21T23:15:27.208Z,77.89
2019-02-21T23:17:59.953Z,78.02
2019-02-21T23:20:32.839Z,78.08
2019-02-21T23:23:05.820Z,78.90
2019-02-21T23:25:38.644Z,78.66
2019-02-21T23:28:11.574Z,78.26
2019-02-21T23:30:44.426Z,78.70
2019-02-21T23:33:17.150Z,78.72
2019-02-21T23:35:49.968Z,78.32
2019-02-21T23:38:22.667Z,78.49
2019-02-21T23:40:55.442Z,78.35
2019-02-21T23:43:28.102Z,78.09
2019-02-21T23:46:00.973Z,78.15
2019-02-21T23:48:33.690Z,77.62
2019-02-21T23:51:06.413Z,77.47
2019-02-21T23:53:39.143Z,78.55
2019-02-21T23:56:11.916Z,79.16
2019-02-21T23:58:44.739Z,79.80
